Aérodrome :
LOGIN :

S'inscrire | Disclaimer

   EN    FR    IT 

 










Légende :    VFR   VFR Marginal   IFR   IFR Intensif   IFR Très Intensif
Visi : 
Plafond : 
>= 8 km
>= 3000ft
5 à 8 km
1000 à 3000 ft
1500m à 5 km
500 à 1000 ft
800 à 1500m
200 à 500 ft
< 800m
< 200 ft
Symboles :   Orages  Brouillard  Fortes neiges  Fortes précipitations  Vent > 20 kt
SIGMETs :   Divers  Orages  Givrage  Turbulence  Onde Orograph.  Cendres Volcan.







- Altitude de l'aérodrome : 1197 ft
- Code IATA : SPM


ETAD - Spangdahlem Ab

DERNIER METAR :
  • 251158Z AUTO 30009G15KT 9999 FEW085 SCT120 SCT150 BKN180 BKN200 08/M05 A2981 RMK AO2 CIG 130 RWY05 SLP091 60000 T00791054 10082 20042 52008 TSNO $

METARs EXPIRÉS :
  • 251058Z AUTO 29009KT 9999 SCT080 BKN140 07/M04 A2980 RMK AO2 SLP088 T00721042 TSNO $
  • 251022Z 27012KT 9999 SCT070 BKN100 BKN130 BKN170 07/M03 A2980 RMK AO2A TSNO $
  • 251011Z 29011KT 9999 BKN070 BKN170 07/M03 A2980 RMK AO2A TSNO $
  • 251005Z 29009KT 9999 SCT070 BKN170 06/M02 A2980 RMK AO2A TSNO $
  • 250958Z 30009KT 9999 FEW028 BKN065 BKN075 BKN210 06/M02 A2980 RMK AO2A SLP088 T00601016 TSNO $
  • 250929Z 28009KT 9999 FEW014 SCT020 SCT025 BKN030 OVC060 06/00 A2979 RMK AO2A TSNO $
  • 250918Z 28008KT 9999 SCT013 BKN019 BKN026 BKN065 06/00 A2979 RMK AO2A CIG 013V026 BKN019 V SCT TSNO $

TAF TAF ETAD
Valide du 25 à 11h jusqu'au 26 à 17h UTC


251106Z 2511/2617 30012KT 9000 -SHRA SCT040 OVC140 QNH2977INS
BECMG 2521/2522 01003KT 9999 NSW SCT050 QNH2980INS
BECMG 2611/2612 32009KT 9000 -DZ BKN040 QNH2983INS TX12/2512Z TN02/2603Z
Pas de NOTAMs connus pour ce terrain.



MET'MAP, la Météo Aéronautique d'un coup d'oeil ! - Copyright ORBIFLY Décembre 2007 - Disclaimer

ORBIFLY MET'MAP TEAM :

Programmation & Développement : Alexandra Zaïnal
Conception & Développement : Baudouin d'Aumeries
Co-Programmation & Développement : Marc-Olivier Méhu
Soutien technique & logistique : Manuel Goepfert

Contact : metmap@orbifly.com




SOURCES & CREDITS :

   NOAA